sensor_id;sensor_type;location;lat;lon;timestamp;P1;durP1;ratioP1;P2;durP2;ratioP2
53867;SDS011;41577;47.470;19.080;2022-09-21T00:00:07;2.17;;;1.73;;
53867;SDS011;41577;47.470;19.080;2022-09-21T00:00:21;2.03;;;1.85;;
53867;SDS011;41577;47.470;19.080;2022-09-21T00:00:37;2.15;;;1.95;;
53867;SDS011;41577;47.470;19.080;2022-09-21T00:00:52;1.90;;;1.80;;
53867;SDS011;41577;47.470;19.080;2022-09-21T00:01:06;2.13;;;1.92;;
53867;SDS011;41577;47.470;19.080;2022-09-21T00:01:22;2.60;;;2.17;;
53867;SDS011;41577;47.470;19.080;2022-09-21T00:01:37;2.80;;;2.10;;
53867;SDS011;41577;47.470;19.080;2022-09-21T00:01:52;2.80;;;1.95;;
53867;SDS011;41577;47.470;19.080;2022-09-21T00:02:07;2.47;;;1.95;;
53867;SDS011;41577;47.470;19.080;2022-09-21T00:02:23;2.83;;;2.30;;
53867;SDS011;41577;47.470;19.080;2022-09-21T00:02:37;2.80;;;2.22;;
53867;SDS011;41577;47.470;19.080;2022-09-21T00:02:54;2.33;;;1.92;;
53867;SDS011;41577;47.470;19.080;2022-09-21T00:03:08;3.80;;;1.88;;
53867;SDS011;41577;47.470;19.080;2022-09-21T00:03:24;3.28;;;1.73;;
53867;SDS011;41577;47.470;19.080;2022-09-21T00:03:38;1.70;;;1.60;;
53867;SDS011;41577;47.470;19.080;2022-09-21T00:03:56;2.10;;;1.90;;
53867;SDS011;41577;47.470;19.080;2022-09-21T00:04:12;2.25;;;2.05;;
53867;SDS011;41577;47.470;19.080;2022-09-21T00:04:27;2.05;;;1.95;;
53867;SDS011;41577;47.470;19.080;2022-09-21T00:04:41;1.80;;;1.70;;
53867;SDS011;41577;47.470;19.080;2022-09-21T00:04:55;1.80;;;1.65;;
53867;SDS011;41577;47.470;19.080;2022-09-21T00:05:11;1.85;;;1.65;;
53867;SDS011;41577;47.470;19.080;2022-09-21T00:05:26;1.73;;;1.55;;
53867;SDS011;41577;47.470;19.080;2022-09-21T00:05:42;1.70;;;1.60;;
53867;SDS011;41577;47.470;19.080;2022-09-21T00:06:02;2.00;;;1.90;;
53867;SDS011;41577;47.470;19.080;2022-09-21T00:06:17;2.20;;;1.85;;
53867;SDS011;41577;47.470;19.080;2022-09-21T00:06:33;2.53;;;1.95;;
53867;SDS011;41577;47.470;19.080;2022-09-21T00:06:49;2.17;;;1.98;;
53867;SDS011;41577;47.470;19.080;2022-09-21T00:07:03;1.75;;;1.65;;
53867;SDS011;41577;47.470;19.080;2022-09-21T00:07:18;1.50;;;1.40;;
53867;SDS011;41577;47.470;19.080;2022-09-21T00:07:32;1.70;;;1.60;;
53867;SDS011;41577;47.470;19.080;2022-09-21T00:07:46;2.27;;;1.80;;
53867;SDS011;41577;47.470;19.080;2022-09-21T00:08:01;2.40;;;1.80;;
53867;SDS011;41577;47.470;19.080;2022-09-21T00:08:17;1.85;;;1.73;;
53867;SDS011;41577;47.470;19.080;2022-09-21T00:08:31;1.80;;;1.70;;
53867;SDS011;41577;47.470;19.080;2022-09-21T00:08:47;1.90;;;1.80;;
53867;SDS011;41577;47.470;19.080;2022-09-21T00:09:01;2.05;;;1.85;;
53867;SDS011;41577;47.470;19.080;2022-09-21T00:09:17;2.10;;;1.90;;
53867;SDS011;41577;47.470;19.080;2022-09-21T00:09:32;1.92;;;1.83;;
53867;SDS011;41577;47.470;19.080;2022-09-21T00:09:47;1.90;;;1.80;;
53867;SDS011;41577;47.470;19.080;2022-09-21T00:10:01;2.42;;;1.92;;
53867;SDS011;41577;47.470;19.080;2022-09-21T00:10:15;2.60;;;2.05;;
53867;SDS011;41577;47.470;19.080;2022-09-21T00:10:31;2.42;;;2.00;;
53867;SDS011;41577;47.470;19.080;2022-09-21T00:10:48;2.90;;;1.85;;
53867;SDS011;41577;47.470;19.080;2022-09-21T00:11:03;1.73;;;1.58;;
53867;SDS011;41577;47.470;19.080;2022-09-21T00:11:20;1.60;;;1.50;;
53867;SDS011;41577;47.470;19.080;2022-09-21T00:11:37;3.08;;;1.88;;
53867;SDS011;41577;47.470;19.080;2022-09-21T00:11:51;3.10;;;2.10;;
53867;SDS011;41577;47.470;19.080;2022-09-21T00:12:06;2.50;;;1.90;;
53867;SDS011;41577;47.470;19.080;2022-09-21T00:12:21;3.92;;;1.73;;
53867;SDS011;41577;47.470;19.080;2022-09-21T00:12:35;4.20;;;1.80;;
53867;SDS011;41577;47.470;19.080;2022-09-21T00:12:51;1.90;;;1.70;;
53867;SDS011;41577;47.470;19.080;2022-09-21T00:13:06;1.58;;;1.48;;
53867;SDS011;41577;47.470;19.080;2022-09-21T00:13:21;1.70;;;1.60;;
53867;SDS011;41577;47.470;19.080;2022-09-21T00:13:35;2.20;;;2.00;;
53867;SDS011;41577;47.470;19.080;2022-09-21T00:13:50;2.40;;;2.15;;
53867;SDS011;41577;47.470;19.080;2022-09-21T00:14:08;2.45;;;1.88;;
53867;SDS011;41577;47.470;19.080;2022-09-21T00:14:24;2.10;;;1.67;;
53867;SDS011;41577;47.470;19.080;2022-09-21T00:14:40;2.38;;;1.63;;
53867;SDS011;41577;47.470;19.080;2022-09-21T00:14:55;2.65;;;1.67;;
53867;SDS011;41577;47.470;19.080;2022-09-21T00:15:10;3.35;;;1.90;;
53867;SDS011;41577;47.470;19.080;2022-09-21T00:15:25;2.80;;;1.95;;
53867;SDS011;41577;47.470;19.080;2022-09-21T00:15:39;2.15;;;1.90;;
53867;SDS011;41577;47.470;19.080;2022-09-21T00:15:55;2.15;;;1.95;;
53867;SDS011;41577;47.470;19.080;2022-09-21T00:16:10;3.05;;;2.70;;
53867;SDS011;41577;47.470;19.080;2022-09-21T00:16:24;3.45;;;3.13;;
53867;SDS011;41577;47.470;19.080;2022-09-21T00:16:39;3.38;;;3.15;;
53867;SDS011;41577;47.470;19.080;2022-09-21T00:16:56;3.10;;;2.85;;
53867;SDS011;41577;47.470;19.080;2022-09-21T00:17:10;2.45;;;2.10;;
53867;SDS011;41577;47.470;19.080;2022-09-21T00:17:24;2.67;;;2.35;;
53867;SDS011;41577;47.470;19.080;2022-09-21T00:17:38;3.42;;;2.80;;
53867;SDS011;41577;47.470;19.080;2022-09-21T00:17:53;3.15;;;2.40;;
53867;SDS011;41577;47.470;19.080;2022-09-21T00:18:09;2.58;;;2.08;;
53867;SDS011;41577;47.470;19.080;2022-09-21T00:18:23;2.88;;;2.25;;
53867;SDS011;41577;47.470;19.080;2022-09-21T00:18:38;2.15;;;1.90;;
53867;SDS011;41577;47.470;19.080;2022-09-21T00:18:52;1.73;;;1.63;;
53867;SDS011;41577;47.470;19.080;2022-09-21T00:19:07;1.85;;;1.73;;
53867;SDS011;41577;47.470;19.080;2022-09-21T00:19:22;2.22;;;1.83;;
53867;SDS011;41577;47.470;19.080;2022-09-21T00:19:38;2.05;;;1.80;;
53867;SDS011;41577;47.470;19.080;2022-09-21T00:19:54;2.10;;;1.90;;
53867;SDS011;41577;47.470;19.080;2022-09-21T00:20:08;2.35;;;1.90;;
53867;SDS011;41577;47.470;19.080;2022-09-21T00:20:23;2.70;;;1.63;;
53867;SDS011;41577;47.470;19.080;2022-09-21T00:20:39;2.78;;;1.63;;
53867;SDS011;41577;47.470;19.080;2022-09-21T00:20:54;1.85;;;1.60;;
53867;SDS011;41577;47.470;19.080;2022-09-21T00:21:10;1.90;;;1.80;;
53867;SDS011;41577;47.470;19.080;2022-09-21T00:21:27;1.92;;;1.83;;
53867;SDS011;41577;47.470;19.080;2022-09-21T00:21:43;2.10;;;1.90;;
53867;SDS011;41577;47.470;19.080;2022-09-21T00:21:58;1.75;;;1.65;;
53867;SDS011;41577;47.470;19.080;2022-09-21T00:22:14;1.58;;;1.48;;
53867;SDS011;41577;47.470;19.080;2022-09-21T00:22:29;1.73;;;1.63;;
53867;SDS011;41577;47.470;19.080;2022-09-21T00:22:43;1.65;;;1.55;;
53867;SDS011;41577;47.470;19.080;2022-09-21T00:22:57;1.60;;;1.50;;
53867;SDS011;41577;47.470;19.080;2022-09-21T00:23:11;3.25;;;1.70;;
53867;SDS011;41577;47.470;19.080;2022-09-21T00:23:26;3.47;;;1.83;;
53867;SDS011;41577;47.470;19.080;2022-09-21T00:23:41;2.00;;;1.80;;
53867;SDS011;41577;47.470;19.080;2022-09-21T00:23:57;2.13;;;1.85;;
53867;SDS011;41577;47.470;19.080;2022-09-21T00:24:13;3.80;;;1.85;;
53867;SDS011;41577;47.470;19.080;2022-09-21T00:24:29;4.45;;;1.85;;
53867;SDS011;41577;47.470;19.080;2022-09-21T00:24:43;2.22;;;1.67;;
53867;SDS011;41577;47.470;19.080;2022-09-21T00:24:57;1.77;;;1.67;;
53867;SDS011;41577;47.470;19.080;2022-09-21T00:25:13;2.05;;;1.75;;
53867;SDS011;41577;47.470;19.080;2022-09-21T00:25:28;4.13;;;1.70;;
53867;SDS011;41577;47.470;19.080;2022-09-21T00:25:43;4.40;;;1.73;;
53867;SDS011;41577;47.470;19.080;2022-09-21T00:26:05;2.55;;;1.70;;
53867;SDS011;41577;47.470;19.080;2022-09-21T00:26:21;2.30;;;1.92;;
53867;SDS011;41577;47.470;19.080;2022-09-21T00:26:37;2.08;;;1.85;;
53867;SDS011;41577;47.470;19.080;2022-09-21T00:26:53;1.63;;;1.52;;
53867;SDS011;41577;47.470;19.080;2022-09-21T00:27:08;1.63;;;1.52;;
53867;SDS011;41577;47.470;19.080;2022-09-21T00:27:23;1.70;;;1.60;;
53867;SDS011;41577;47.470;19.080;2022-09-21T00:27:42;1.63;;;1.52;;
53867;SDS011;41577;47.470;19.080;2022-09-21T00:27:57;1.40;;;1.30;;
53867;SDS011;41577;47.470;19.080;2022-09-21T00:28:12;1.75;;;1.40;;
53867;SDS011;41577;47.470;19.080;2022-09-21T00:28:26;2.47;;;1.63;;
53867;SDS011;41577;47.470;19.080;2022-09-21T00:28:42;2.10;;;1.60;;
53867;SDS011;41577;47.470;19.080;2022-09-21T00:29:01;3.75;;;1.60;;
53867;SDS011;41577;47.470;19.080;2022-09-21T00:29:16;3.47;;;1.58;;
53867;SDS011;41577;47.470;19.080;2022-09-21T00:29:33;6.10;;;1.60;;
53867;SDS011;41577;47.470;19.080;2022-09-21T00:29:49;5.53;;;1.85;;
53867;SDS011;41577;47.470;19.080;2022-09-21T00:30:03;2.10;;;1.75;;
53867;SDS011;41577;47.470;19.080;2022-09-21T00:30:19;1.63;;;1.52;;
53867;SDS011;41577;47.470;19.080;2022-09-21T00:30:34;2.58;;;1.70;;
53867;SDS011;41577;47.470;19.080;2022-09-21T00:30:51;4.63;;;1.73;;
53867;SDS011;41577;47.470;19.080;2022-09-21T00:31:07;3.65;;;1.80;;
53867;SDS011;41577;47.470;19.080;2022-09-21T00:31:23;3.90;;;1.73;;
53867;SDS011;41577;47.470;19.080;2022-09-21T00:31:39;3.85;;;1.63;;
53867;SDS011;41577;47.470;19.080;2022-09-21T00:31:58;4.55;;;1.98;;
53867;SDS011;41577;47.470;19.080;2022-09-21T00:32:12;3.85;;;2.05;;
53867;SDS011;41577;47.470;19.080;2022-09-21T00:32:28;2.42;;;1.75;;
53867;SDS011;41577;47.470;19.080;2022-09-21T00:32:43;1.90;;;1.80;;
53867;SDS011;41577;47.470;19.080;2022-09-21T00:32:59;3.20;;;1.92;;
53867;SDS011;41577;47.470;19.080;2022-09-21T00:33:15;3.60;;;1.70;;
53867;SDS011;41577;47.470;19.080;2022-09-21T00:33:29;2.40;;;1.70;;
53867;SDS011;41577;47.470;19.080;2022-09-21T00:33:44;2.95;;;1.77;;
53867;SDS011;41577;47.470;19.080;2022-09-21T00:33:59;3.22;;;1.95;;
53867;SDS011;41577;47.470;19.080;2022-09-21T00:34:16;2.67;;;1.98;;
53867;SDS011;41577;47.470;19.080;2022-09-21T00:34:30;2.95;;;1.80;;
53867;SDS011;41577;47.470;19.080;2022-09-21T00:34:44;2.45;;;1.73;;
53867;SDS011;41577;47.470;19.080;2022-09-21T00:35:00;2.20;;;1.67;;
53867;SDS011;41577;47.470;19.080;2022-09-21T00:35:15;1.65;;;1.55;;
53867;SDS011;41577;47.470;19.080;2022-09-21T00:35:29;2.33;;;1.52;;
53867;SDS011;41577;47.470;19.080;2022-09-21T00:35:43;2.90;;;1.85;;
53867;SDS011;41577;47.470;19.080;2022-09-21T00:36:01;2.08;;;1.88;;
53867;SDS011;41577;47.470;19.080;2022-09-21T00:36:17;1.50;;;1.40;;
53867;SDS011;41577;47.470;19.080;2022-09-21T00:36:34;1.70;;;1.60;;
53867;SDS011;41577;47.470;19.080;2022-09-21T00:36:49;1.62;;;1.52;;
53867;SDS011;41577;47.470;19.080;2022-09-21T00:37:03;1.70;;;1.48;;
53867;SDS011;41577;47.470;19.080;2022-09-21T00:37:17;2.00;;;1.55;;
53867;SDS011;41577;47.470;19.080;2022-09-21T00:37:32;1.70;;;1.60;;
53867;SDS011;41577;47.470;19.080;2022-09-21T00:37:47;2.00;;;1.80;;
53867;SDS011;41577;47.470;19.080;2022-09-21T00:38:03;2.28;;;1.85;;
53867;SDS011;41577;47.470;19.080;2022-09-21T00:38:19;1.95;;;1.75;;
53867;SDS011;41577;47.470;19.080;2022-09-21T00:38:36;1.95;;;1.75;;
53867;SDS011;41577;47.470;19.080;2022-09-21T00:38:51;2.47;;;2.00;;
53867;SDS011;41577;47.470;19.080;2022-09-21T00:39:08;2.35;;;2.15;;
53867;SDS011;41577;47.470;19.080;2022-09-21T00:39:22;2.03;;;1.92;;
53867;SDS011;41577;47.470;19.080;2022-09-21T00:39:38;1.85;;;1.60;;
53867;SDS011;41577;47.470;19.080;2022-09-21T00:39:53;1.83;;;1.65;;
53867;SDS011;41577;47.470;19.080;2022-09-21T00:40:08;1.73;;;1.63;;
53867;SDS011;41577;47.470;19.080;2022-09-21T00:40:23;1.70;;;1.60;;
53867;SDS011;41577;47.470;19.080;2022-09-21T00:40:38;1.80;;;1.67;;
53867;SDS011;41577;47.470;19.080;2022-09-21T00:40:52;2.30;;;1.83;;
53867;SDS011;41577;47.470;19.080;2022-09-21T00:41:09;3.08;;;1.73;;
53867;SDS011;41577;47.470;19.080;2022-09-21T00:41:25;2.40;;;1.67;;
53867;SDS011;41577;47.470;19.080;2022-09-21T00:41:40;1.77;;;1.67;;
53867;SDS011;41577;47.470;19.080;2022-09-21T00:41:55;2.05;;;1.85;;
53867;SDS011;41577;47.470;19.080;2022-09-21T00:42:12;2.03;;;1.85;;
53867;SDS011;41577;47.470;19.080;2022-09-21T00:42:31;2.67;;;1.80;;
53867;SDS011;41577;47.470;19.080;2022-09-21T00:42:47;2.10;;;1.70;;
53867;SDS011;41577;47.470;19.080;2022-09-21T00:43:12;1.63;;;1.52;;
53867;SDS011;41577;47.470;19.080;2022-09-21T00:43:28;5.00;;;1.80;;
53867;SDS011;41577;47.470;19.080;2022-09-21T00:43:48;5.38;;;2.22;;
53867;SDS011;41577;47.470;19.080;2022-09-21T00:44:26;2.83;;;1.73;;
53867;SDS011;41577;47.470;19.080;2022-09-21T00:44:43;2.15;;;1.60;;
53867;SDS011;41577;47.470;19.080;2022-09-21T00:44:57;1.55;;;1.45;;
53867;SDS011;41577;47.470;19.080;2022-09-21T00:45:12;2.13;;;1.60;;
53867;SDS011;41577;47.470;19.080;2022-09-21T00:45:33;2.50;;;1.88;;
53867;SDS011;41577;47.470;19.080;2022-09-21T00:45:48;2.30;;;2.05;;
53867;SDS011;41577;47.470;19.080;2022-09-21T00:46:10;1.67;;;1.58;;
53867;SDS011;41577;47.470;19.080;2022-09-21T00:46:30;1.67;;;1.58;;
53867;SDS011;41577;47.470;19.080;2022-09-21T00:46:45;3.70;;;1.75;;
53867;SDS011;41577;47.470;19.080;2022-09-21T00:47:03;3.55;;;1.70;;
53867;SDS011;41577;47.470;19.080;2022-09-21T00:47:25;1.60;;;1.50;;
53867;SDS011;41577;47.470;19.080;2022-09-21T00:47:43;1.65;;;1.55;;
53867;SDS011;41577;47.470;19.080;2022-09-21T00:47:59;2.40;;;1.80;;
53867;SDS011;41577;47.470;19.080;2022-09-21T00:48:14;2.10;;;1.55;;
53867;SDS011;41577;47.470;19.080;2022-09-21T00:48:28;1.90;;;1.60;;
53867;SDS011;41577;47.470;19.080;2022-09-21T00:48:45;4.20;;;1.95;;
53867;SDS011;41577;47.470;19.080;2022-09-21T00:49:00;3.70;;;1.92;;
53867;SDS011;41577;47.470;19.080;2022-09-21T00:49:16;2.13;;;1.92;;
53867;SDS011;41577;47.470;19.080;2022-09-21T00:49:31;2.22;;;2.05;;
53867;SDS011;41577;47.470;19.080;2022-09-21T00:49:47;4.90;;;1.83;;
53867;SDS011;41577;47.470;19.080;2022-09-21T00:50:08;5.15;;;1.75;;
53867;SDS011;41577;47.470;19.080;2022-09-21T00:50:26;2.13;;;1.90;;
53867;SDS011;41577;47.470;19.080;2022-09-21T00:50:41;2.55;;;1.77;;
53867;SDS011;41577;47.470;19.080;2022-09-21T00:51:02;1.45;;;1.35;;
53867;SDS011;41577;47.470;19.080;2022-09-21T00:51:20;1.38;;;1.27;;
53867;SDS011;41577;47.470;19.080;2022-09-21T00:51:36;1.73;;;1.60;;
53867;SDS011;41577;47.470;19.080;2022-09-21T00:51:51;2.50;;;1.90;;
53867;SDS011;41577;47.470;19.080;2022-09-21T00:52:06;1.98;;;1.70;;
53867;SDS011;41577;47.470;19.080;2022-09-21T00:52:23;1.73;;;1.63;;
53867;SDS011;41577;47.470;19.080;2022-09-21T00:52:40;2.15;;;1.95;;
53867;SDS011;41577;47.470;19.080;2022-09-21T00:52:57;2.10;;;1.90;;
53867;SDS011;41577;47.470;19.080;2022-09-21T00:53:13;1.80;;;1.67;;
53867;SDS011;41577;47.470;19.080;2022-09-21T00:53:29;1.65;;;1.55;;
53867;SDS011;41577;47.470;19.080;2022-09-21T00:53:45;2.60;;;1.50;;
53867;SDS011;41577;47.470;19.080;2022-09-21T00:54:05;3.03;;;1.70;;
53867;SDS011;41577;47.470;19.080;2022-09-21T00:54:25;1.90;;;1.80;;
53867;SDS011;41577;47.470;19.080;2022-09-21T00:54:48;1.70;;;1.60;;
53867;SDS011;41577;47.470;19.080;2022-09-21T00:55:05;1.75;;;1.65;;
53867;SDS011;41577;47.470;19.080;2022-09-21T00:55:26;1.80;;;1.70;;
53867;SDS011;41577;47.470;19.080;2022-09-21T00:55:45;1.90;;;1.80;;
53867;SDS011;41577;47.470;19.080;2022-09-21T00:56:04;4.15;;;1.80;;
53867;SDS011;41577;47.470;19.080;2022-09-21T00:56:20;3.97;;;1.60;;
53867;SDS011;41577;47.470;19.080;2022-09-21T00:56:39;2.25;;;1.70;;
53867;SDS011;41577;47.470;19.080;2022-09-21T00:56:54;2.20;;;1.77;;
53867;SDS011;41577;47.470;19.080;2022-09-21T00:57:12;1.80;;;1.70;;
53867;SDS011;41577;47.470;19.080;2022-09-21T00:57:28;1.98;;;1.88;;
53867;SDS011;41577;47.470;19.080;2022-09-21T00:57:45;2.22;;;2.00;;
53867;SDS011;41577;47.470;19.080;2022-09-21T00:58:02;1.83;;;1.65;;
53867;SDS011;41577;47.470;19.080;2022-09-21T00:58:21;1.65;;;1.52;;
53867;SDS011;41577;47.470;19.080;2022-09-21T00:58:43;2.72;;;1.80;;
53867;SDS011;41577;47.470;19.080;2022-09-21T00:59:00;2.22;;;1.80;;
53867;SDS011;41577;47.470;19.080;2022-09-21T00:59:15;2.22;;;1.70;;
53867;SDS011;41577;47.470;19.080;2022-09-21T00:59:33;2.80;;;1.73;;
53867;SDS011;41577;47.470;19.080;2022-09-21T00:59:55;2.40;;;1.80;;
53867;SDS011;41577;47.470;19.080;2022-09-21T01:00:13;2.05;;;1.90;;
53867;SDS011;41577;47.470;19.080;2022-09-21T01:00:31;1.75;;;1.65;;
53867;SDS011;41577;47.470;19.080;2022-09-21T01:00:45;1.80;;;1.70;;
53867;SDS011;41577;47.470;19.080;2022-09-21T01:01:00;1.98;;;1.80;;
53867;SDS011;41577;47.470;19.080;2022-09-21T01:01:14;2.10;;;1.90;;
53867;SDS011;41577;47.470;19.080;2022-09-21T01:01:30;2.22;;;1.58;;
53867;SDS011;41577;47.470;19.080;2022-09-21T01:01:44;1.60;;;1.27;;
53867;SDS011;41577;47.470;19.080;2022-09-21T01:02:00;1.55;;;1.45;;
53867;SDS011;41577;47.470;19.080;2022-09-21T01:02:15;1.83;;;1.70;;
53867;SDS011;41577;47.470;19.080;2022-09-21T01:02:30;4.10;;;1.80;;
53867;SDS011;41577;47.470;19.080;2022-09-21T01:02:44;3.60;;;1.70;;
53867;SDS011;41577;47.470;19.080;2022-09-21T01:02:58;1.65;;;1.55;;
53867;SDS011;41577;47.470;19.080;2022-09-21T01:03:14;2.60;;;1.55;;
53867;SDS011;41577;47.470;19.080;2022-09-21T01:03:29;2.55;;;1.60;;
53867;SDS011;41577;47.470;19.080;2022-09-21T01:03:45;1.70;;;1.60;;
53867;SDS011;41577;47.470;19.080;2022-09-21T01:04:00;1.70;;;1.60;;
53867;SDS011;41577;47.470;19.080;2022-09-21T01:04:16;1.63;;;1.52;;
53867;SDS011;41577;47.470;19.080;2022-09-21T01:04:31;1.50;;;1.40;;
53867;SDS011;41577;47.470;19.080;2022-09-21T01:04:45;1.75;;;1.65;;
53867;SDS011;41577;47.470;19.080;2022-09-21T01:05:02;1.63;;;1.52;;
53867;SDS011;41577;47.470;19.080;2022-09-21T01:05:17;2.33;;;1.65;;
53867;SDS011;41577;47.470;19.080;2022-09-21T01:05:31;3.53;;;2.00;;
53867;SDS011;41577;47.470;19.080;2022-09-21T01:05:45;2.38;;;1.80;;
53867;SDS011;41577;47.470;19.080;2022-09-21T01:05:59;2.03;;;1.85;;
53867;SDS011;41577;47.470;19.080;2022-09-21T01:06:13;2.03;;;1.92;;
53867;SDS011;41577;47.470;19.080;2022-09-21T01:06:31;2.00;;;1.80;;
53867;SDS011;41577;47.470;19.080;2022-09-21T01:06:48;3.10;;;2.13;;
53867;SDS011;41577;47.470;19.080;2022-09-21T01:07:03;2.90;;;2.13;;
53867;SDS011;41577;47.470;19.080;2022-09-21T01:07:21;2.75;;;1.80;;
53867;SDS011;41577;47.470;19.080;2022-09-21T01:07:39;2.80;;;1.90;;
53867;SDS011;41577;47.470;19.080;2022-09-21T01:07:59;1.50;;;1.40;;
53867;SDS011;41577;47.470;19.080;2022-09-21T01:08:16;1.67;;;1.58;;
53867;SDS011;41577;47.470;19.080;2022-09-21T01:08:32;2.10;;;1.90;;
53867;SDS011;41577;47.470;19.080;2022-09-21T01:08:47;2.13;;;1.92;;
53867;SDS011;41577;47.470;19.080;2022-09-21T01:09:05;3.67;;;2.00;;
53867;SDS011;41577;47.470;19.080;2022-09-21T01:09:19;3.38;;;1.90;;
53867;SDS011;41577;47.470;19.080;2022-09-21T01:09:34;1.90;;;1.70;;
53867;SDS011;41577;47.470;19.080;2022-09-21T01:09:52;4.55;;;1.73;;
53867;SDS011;41577;47.470;19.080;2022-09-21T01:10:10;4.40;;;1.80;;
53867;SDS011;41577;47.470;19.080;2022-09-21T01:10:27;1.83;;;1.73;;
53867;SDS011;41577;47.470;19.080;2022-09-21T01:10:57;1.92;;;1.67;;
53867;SDS011;41577;47.470;19.080;2022-09-21T01:11:26;5.18;;;1.77;;
53867;SDS011;41577;47.470;19.080;2022-09-21T01:11:50;2.38;;;1.80;;
53867;SDS011;41577;47.470;19.080;2022-09-21T01:12:18;2.80;;;1.88;;
53867;SDS011;41577;47.470;19.080;2022-09-21T01:12:48;3.05;;;1.63;;
53867;SDS011;41577;47.470;19.080;2022-09-21T01:13:12;1.70;;;1.60;;
53867;SDS011;41577;47.470;19.080;2022-09-21T01:13:41;1.70;;;1.60;;
53867;SDS011;41577;47.470;19.080;2022-09-21T01:14:09;1.83;;;1.73;;
53867;SDS011;41577;47.470;19.080;2022-09-21T01:14:43;2.72;;;1.80;;
53867;SDS011;41577;47.470;19.080;2022-09-21T01:15:13;1.80;;;1.40;;
53867;SDS011;41577;47.470;19.080;2022-09-21T01:15:38;1.88;;;1.77;;
53867;SDS011;41577;47.470;19.080;2022-09-21T01:16:00;1.90;;;1.50;;
53867;SDS011;41577;47.470;19.080;2022-09-21T01:16:25;1.60;;;1.50;;
53867;SDS011;41577;47.470;19.080;2022-09-21T01:16:47;2.10;;;1.90;;
53867;SDS011;41577;47.470;19.080;2022-09-21T01:17:15;2.00;;;1.73;;
53867;SDS011;41577;47.470;19.080;2022-09-21T01:17:40;2.88;;;1.75;;
53867;SDS011;41577;47.470;19.080;2022-09-21T01:18:00;2.20;;;1.63;;
53867;SDS011;41577;47.470;19.080;2022-09-21T01:18:23;3.13;;;1.80;;
53867;SDS011;41577;47.470;19.080;2022-09-21T01:18:45;2.70;;;1.70;;
53867;SDS011;41577;47.470;19.080;2022-09-21T01:19:11;1.52;;;1.42;;
53867;SDS011;41577;47.470;19.080;2022-09-21T01:19:55;2.00;;;1.52;;
53867;SDS011;41577;47.470;19.080;2022-09-21T01:21:36;2.10;;;1.90;;
53867;SDS011;41577;47.470;19.080;2022-09-21T01:22:06;1.65;;;1.50;;
53867;SDS011;41577;47.470;19.080;2022-09-21T01:22:28;1.58;;;1.48;;
53867;SDS011;41577;47.470;19.080;2022-09-21T01:23:00;2.45;;;1.80;;
53867;SDS011;41577;47.470;19.080;2022-09-21T01:23:32;2.45;;;1.60;;
53867;SDS011;41577;47.470;19.080;2022-09-21T01:25:06;1.80;;;1.70;;
53867;SDS011;41577;47.470;19.080;2022-09-21T01:25:29;2.15;;;1.70;;
53867;SDS011;41577;47.470;19.080;2022-09-21T01:25:55;1.70;;;1.60;;
53867;SDS011;41577;47.470;19.080;2022-09-21T01:26:22;1.77;;;1.42;;
53867;SDS011;41577;47.470;19.080;2022-09-21T01:27:00;2.88;;;1.60;;
53867;SDS011;41577;47.470;19.080;2022-09-21T01:27:44;1.63;;;1.50;;
53867;SDS011;41577;47.470;19.080;2022-09-21T01:28:11;1.63;;;1.52;;
53867;SDS011;41577;47.470;19.080;2022-09-21T01:28:46;2.33;;;1.80;;
53867;SDS011;41577;47.470;19.080;2022-09-21T01:29:18;1.60;;;1.50;;
53867;SDS011;41577;47.470;19.080;2022-09-21T01:29:36;1.90;;;1.30;;
53867;SDS011;41577;47.470;19.080;2022-09-21T01:29:57;5.50;;;1.70;;
53867;SDS011;41577;47.470;19.080;2022-09-21T01:30:15;3.10;;;1.60;;
53867;SDS011;41577;47.470;19.080;2022-09-21T01:30:32;1.58;;;1.48;;
53867;SDS011;41577;47.470;19.080;2022-09-21T01:30:50;1.33;;;1.23;;
53867;SDS011;41577;47.470;19.080;2022-09-21T01:31:06;1.45;;;1.35;;
53867;SDS011;41577;47.470;19.080;2022-09-21T01:31:26;2.33;;;1.70;;
53867;SDS011;41577;47.470;19.080;2022-09-21T01:31:45;1.95;;;1.77;;
53867;SDS011;41577;47.470;19.080;2022-09-21T01:32:05;1.75;;;1.65;;
53867;SDS011;41577;47.470;19.080;2022-09-21T01:32:24;1.60;;;1.50;;
53867;SDS011;41577;47.470;19.080;2022-09-21T01:32:43;2.40;;;1.50;;
53867;SDS011;41577;47.470;19.080;2022-09-21T01:33:02;2.97;;;1.60;;
53867;SDS011;41577;47.470;19.080;2022-09-21T01:33:22;2.75;;;1.50;;
53867;SDS011;41577;47.470;19.080;2022-09-21T01:33:39;1.73;;;1.48;;
53867;SDS011;41577;47.470;19.080;2022-09-21T01:34:01;1.98;;;1.40;;
53867;SDS011;41577;47.470;19.080;2022-09-21T01:34:26;2.05;;;1.65;;
53867;SDS011;41577;47.470;19.080;2022-09-21T01:34:43;1.83;;;1.70;;
53867;SDS011;41577;47.470;19.080;2022-09-21T01:35:04;2.13;;;1.52;;
53867;SDS011;41577;47.470;19.080;2022-09-21T01:35:25;1.85;;;1.25;;
53867;SDS011;41577;47.470;19.080;2022-09-21T01:35:45;2.00;;;1.33;;
53867;SDS011;41577;47.470;19.080;2022-09-21T01:36:03;2.00;;;1.48;;
53867;SDS011;41577;47.470;19.080;2022-09-21T01:36:23;2.70;;;1.70;;
53867;SDS011;41577;47.470;19.080;2022-09-21T01:36:41;1.98;;;1.75;;
53867;SDS011;41577;47.470;19.080;2022-09-21T01:37:01;1.80;;;1.60;;
53867;SDS011;41577;47.470;19.080;2022-09-21T01:37:22;1.70;;;1.60;;
53867;SDS011;41577;47.470;19.080;2022-09-21T01:37:42;1.90;;;1.77;;
53867;SDS011;41577;47.470;19.080;2022-09-21T01:38:00;3.17;;;2.00;;
53867;SDS011;41577;47.470;19.080;2022-09-21T01:38:20;2.22;;;2.03;;
53867;SDS011;41577;47.470;19.080;2022-09-21T01:38:39;4.03;;;1.70;;
53867;SDS011;41577;47.470;19.080;2022-09-21T01:38:59;1.50;;;1.30;;
53867;SDS011;41577;47.470;19.080;2022-09-21T01:39:19;1.67;;;1.50;;
53867;SDS011;41577;47.470;19.080;2022-09-21T01:39:35;1.75;;;1.63;;
53867;SDS011;41577;47.470;19.080;2022-09-21T01:39:53;2.40;;;1.75;;
53867;SDS011;41577;47.470;19.080;2022-09-21T01:40:15;2.10;;;1.67;;
53867;SDS011;41577;47.470;19.080;2022-09-21T01:40:35;2.22;;;1.48;;
53867;SDS011;41577;47.470;19.080;2022-09-21T01:40:52;3.05;;;1.80;;
53867;SDS011;41577;47.470;19.080;2022-09-21T01:41:11;3.10;;;1.63;;
53867;SDS011;41577;47.470;19.080;2022-09-21T01:41:29;1.90;;;1.67;;
53867;SDS011;41577;47.470;19.080;2022-09-21T01:41:46;2.45;;;1.98;;
53867;SDS011;41577;47.470;19.080;2022-09-21T01:42:06;1.92;;;1.80;;
53867;SDS011;41577;47.470;19.080;2022-09-21T01:42:23;1.92;;;1.40;;
53867;SDS011;41577;47.470;19.080;2022-09-21T01:42:40;2.97;;;1.45;;
53867;SDS011;41577;47.470;19.080;2022-09-21T01:42:58;1.70;;;1.45;;
53867;SDS011;41577;47.470;19.080;2022-09-21T01:43:14;2.30;;;1.50;;
53867;SDS011;41577;47.470;19.080;2022-09-21T01:43:38;2.50;;;1.63;;
53867;SDS011;41577;47.470;19.080;2022-09-21T01:43:58;1.77;;;1.63;;
53867;SDS011;41577;47.470;19.080;2022-09-21T01:44:21;2.42;;;1.88;;
53867;SDS011;41577;47.470;19.080;2022-09-21T01:44:41;2.70;;;2.13;;
53867;SDS011;41577;47.470;19.080;2022-09-21T01:45:03;2.78;;;2.25;;
53867;SDS011;41577;47.470;19.080;2022-09-21T01:45:21;2.83;;;2.63;;
53867;SDS011;41577;47.470;19.080;2022-09-21T01:45:42;2.15;;;2.05;;
53867;SDS011;41577;47.470;19.080;2022-09-21T01:46:00;3.75;;;1.73;;
53867;SDS011;41577;47.470;19.080;2022-09-21T01:46:17;1.80;;;1.65;;
53867;SDS011;41577;47.470;19.080;2022-09-21T01:46:34;1.73;;;1.35;;
53867;SDS011;41577;47.470;19.080;2022-09-21T01:46:52;4.07;;;1.67;;
53867;SDS011;41577;47.470;19.080;2022-09-21T01:47:09;4.63;;;1.75;;
53867;SDS011;41577;47.470;19.080;2022-09-21T01:47:25;1.58;;;1.48;;